Time;durP1;ratioP1;P1;durP2;ratioP2;P2;SDS_P1;SDS_P2;PMS_P1;PMS_P2;Temp;Humidity;BMP_temperature;BMP_pressure;BME280_temperature;BME280_humidity;BME280_pressure;Samples;Min_cycle;Max_cycle;Signal;HPM_P1;HPM_P2
2022/03/09 00:01:56;;;;;;;8.27;3.90;;;3.40;96.20;;;;;;4919122;29;20264;-74
2022/03/09 00:04:23;;;;;;;8.43;4.10;;;3.30;96.00;;;;;;4919178;29;20230;-73
2022/03/09 00:06:49;;;;;;;9.10;3.87;;;3.40;96.40;;;;;;4920513;29;20213;-73
2022/03/09 00:09:16;;;;;;;8.13;3.67;;;3.40;96.50;;;;;;4938195;29;20213;-73
2022/03/09 00:11:43;;;;;;;8.20;3.40;;;3.50;96.20;;;;;;4926132;29;20201;-74
2022/03/09 00:14:10;;;;;;;8.40;3.47;;;3.40;95.80;;;;;;4918694;29;20245;-72
2022/03/09 00:16:37;;;;;;;7.17;4.00;;;3.50;96.10;;;;;;4918744;29;20217;-72
2022/03/09 00:19:05;;;;;;;10.87;3.20;;;3.50;96.20;;;;;;4918727;29;20209;-72
2022/03/09 00:21:32;;;;;;;7.73;3.10;;;3.50;96.10;;;;;;4918707;29;20237;-72
2022/03/09 00:23:59;;;;;;;7.60;3.40;;;3.40;96.00;;;;;;4918529;29;20225;-72
2022/03/09 00:26:26;;;;;;;7.73;3.40;;;3.50;96.20;;;;;;4918957;29;20235;-72
2022/03/09 00:28:52;;;;;;;7.80;3.63;;;3.40;95.60;;;;;;4918954;29;20205;-72
2022/03/09 00:31:19;;;;;;;7.27;3.60;;;3.50;95.70;;;;;;4918883;29;20213;-72
2022/03/09 00:33:46;;;;;;;9.23;4.10;;;3.60;96.40;;;;;;4918612;29;20235;-72
2022/03/09 00:36:14;;;;;;;8.03;3.47;;;3.70;96.40;;;;;;4921924;29;20206;-72
2022/03/09 00:38:41;;;;;;;6.73;3.77;;;3.60;96.30;;;;;;4930497;29;20211;-72
2022/03/09 00:41:08;;;;;;;10.03;4.40;;;3.70;96.60;;;;;;4937216;29;20237;-72
2022/03/09 00:43:36;;;;;;;8.10;3.67;;;3.60;97.30;;;;;;4937324;29;20205;-72
2022/03/09 00:46:03;;;;;;;6.43;3.30;;;3.60;97.30;;;;;;4937623;29;20213;-72
2022/03/09 00:48:30;;;;;;;7.53;4.03;;;3.40;96.40;;;;;;4937162;29;20538;-73
2022/03/09 00:50:57;;;;;;;7.13;3.63;;;3.40;96.90;;;;;;4937396;29;20212;-72
2022/03/09 00:53:25;;;;;;;9.40;4.87;;;3.40;96.40;;;;;;4928758;29;20213;-72
2022/03/09 00:55:52;;;;;;;8.13;3.87;;;3.40;97.20;;;;;;4917932;29;20727;-72
2022/03/09 00:58:18;;;;;;;10.43;4.13;;;3.40;97.00;;;;;;4918305;29;20210;-72
2022/03/09 01:00:45;;;;;;;6.57;3.60;;;3.40;97.00;;;;;;4918538;29;20244;-73
2022/03/09 01:03:12;;;;;;;8.03;4.00;;;3.50;96.70;;;;;;4918093;29;20209;-72
2022/03/09 01:05:39;;;;;;;7.10;3.63;;;3.50;96.40;;;;;;4918121;29;20233;-72
2022/03/09 01:08:06;;;;;;;5.63;3.13;;;3.40;96.20;;;;;;4918327;29;20216;-72
2022/03/09 01:10:34;;;;;;;9.03;4.10;;;3.50;96.50;;;;;;4918430;29;20572;-73
2022/03/09 01:13:02;;;;;;;7.33;3.97;;;3.50;97.30;;;;;;4917814;29;20210;-73
2022/03/09 01:15:29;;;;;;;8.73;3.90;;;3.50;97.50;;;;;;4917850;29;20225;-72
2022/03/09 01:17:55;;;;;;;9.47;3.73;;;3.60;97.70;;;;;;4918225;29;20221;-73
2022/03/09 01:20:23;;;;;;;9.13;3.83;;;3.50;97.50;;;;;;4917649;29;20673;-73
2022/03/09 01:22:52;;;;;;;9.10;3.77;;;3.40;98.10;;;;;;4918102;29;20296;-73
2022/03/09 01:25:19;;;;;;;8.20;3.77;;;3.40;97.80;;;;;;4917493;29;20229;-73
2022/03/09 01:27:47;;;;;;;10.33;3.73;;;3.40;97.50;;;;;;4918035;29;20216;-73
2022/03/09 01:30:14;;;;;;;7.73;3.93;;;3.50;97.00;;;;;;4918005;29;20216;-72
2022/03/09 01:32:41;;;;;;;7.67;3.53;;;3.50;96.80;;;;;;4917359;29;20224;-72
2022/03/09 01:35:08;;;;;;;9.37;4.23;;;3.40;96.50;;;;;;4916920;29;20233;-72
2022/03/09 01:37:35;;;;;;;8.20;3.73;;;3.20;96.60;;;;;;4917604;29;20213;-72
2022/03/09 01:40:02;;;;;;;10.43;4.07;;;2.90;96.70;;;;;;4917626;29;20220;-73
2022/03/09 01:42:29;;;;;;;7.50;3.37;;;2.80;97.00;;;;;;4917862;29;20244;-72
2022/03/09 01:45:02;;;;;;;9.83;4.17;;;2.90;97.70;;;;;;4916867;29;20226;-73
2022/03/09 01:47:29;;;;;;;6.93;3.63;;;2.90;97.70;;;;;;4917548;29;20213;-73
2022/03/09 01:49:56;;;;;;;8.37;3.47;;;3.00;97.40;;;;;;4917238;29;20213;-72
2022/03/09 01:52:23;;;;;;;9.37;4.30;;;3.10;98.20;;;;;;4917376;29;20723;-72
2022/03/09 01:54:52;;;;;;;8.60;4.07;;;3.10;98.40;;;;;;4917103;29;20704;-73
2022/03/09 01:57:19;;;;;;;7.03;3.90;;;3.10;98.80;;;;;;4917036;29;20210;-72
2022/03/09 01:59:48;;;;;;;8.83;4.17;;;2.90;98.60;;;;;;4917169;29;20298;-72
2022/03/09 02:02:16;;;;;;;7.17;3.50;;;2.80;98.80;;;;;;4917212;29;20238;-72
2022/03/09 02:04:43;;;;;;;8.33;3.80;;;2.70;99.30;;;;;;4917134;29;20281;-72
2022/03/09 02:07:11;;;;;;;7.30;3.50;;;2.70;99.20;;;;;;4916883;29;20217;-73
2022/03/09 02:09:44;;;;;;;8.90;4.10;;;2.60;98.70;;;;;;4917095;29;20218;-73
2022/03/09 02:12:12;;;;;;;7.10;3.47;;;2.50;98.60;;;;;;4916952;29;20214;-72
2022/03/09 02:14:41;;;;;;;8.07;3.80;;;2.50;98.50;;;;;;4916667;29;20233;-73
2022/03/09 02:17:10;;;;;;;6.57;3.27;;;2.50;99.30;;;;;;4916685;29;20295;-72
2022/03/09 02:19:39;;;;;;;6.17;3.83;;;2.50;99.90;;;;;;4916567;29;20209;-72
2022/03/09 02:22:13;;;;;;;8.90;3.90;;;2.40;99.90;;;;;;4916777;29;20237;-72
2022/03/09 02:24:41;;;;;;;9.83;3.70;;;2.40;99.30;;;;;;4916452;29;20228;-72
2022/03/09 02:27:08;;;;;;;5.63;3.27;;;2.40;99.10;;;;;;4916673;29;20640;-73
2022/03/09 02:29:35;;;;;;;7.07;3.90;;;2.40;99.10;;;;;;4916783;29;20307;-73
2022/03/09 02:32:02;;;;;;;7.73;3.73;;;2.40;99.00;;;;;;4917073;29;20209;-73
2022/03/09 02:34:29;;;;;;;7.37;3.70;;;2.40;98.80;;;;;;4916380;29;20241;-72
2022/03/09 02:36:57;;;;;;;7.83;3.40;;;2.30;98.90;;;;;;4916759;29;20209;-72
2022/03/09 02:39:24;;;;;;;8.20;3.97;;;2.30;98.90;;;;;;4916615;29;20210;-72
2022/03/09 02:41:52;;;;;;;5.73;2.80;;;2.20;99.00;;;;;;4916572;29;20705;-72
2022/03/09 02:44:19;;;;;;;10.40;4.43;;;2.20;99.10;;;;;;4916651;29;20238;-72
2022/03/09 02:46:46;;;;;;;6.27;3.60;;;2.30;99.00;;;;;;4916797;29;20214;-72
2022/03/09 02:49:13;;;;;;;7.90;3.87;;;2.20;98.90;;;;;;4916650;29;20214;-72
2022/03/09 02:51:40;;;;;;;7.07;3.60;;;2.20;99.00;;;;;;4916462;29;20208;-73
2022/03/09 02:54:06;;;;;;;8.67;4.17;;;2.20;99.00;;;;;;4915944;29;20240;-72
2022/03/09 02:56:33;;;;;;;8.67;3.87;;;2.30;99.40;;;;;;4915982;29;20561;-72
2022/03/09 02:59:01;;;;;;;10.17;3.70;;;2.30;99.20;;;;;;4916358;29;20252;-72
2022/03/09 03:01:28;;;;;;;9.27;4.00;;;2.40;99.30;;;;;;4916541;29;20237;-73
2022/03/09 03:03:55;;;;;;;6.70;3.47;;;2.40;99.10;;;;;;4916443;29;20217;-72
2022/03/09 03:06:23;;;;;;;7.50;3.50;;;2.20;99.30;;;;;;4916339;29;20213;-72
2022/03/09 03:08:50;;;;;;;6.67;3.30;;;2.20;99.30;;;;;;4916302;29;20209;-72
2022/03/09 03:11:18;;;;;;;7.90;4.43;;;2.30;99.30;;;;;;4916829;29;20213;-73
2022/03/09 03:13:44;;;;;;;7.83;3.70;;;2.20;99.20;;;;;;4916598;29;20213;-73
2022/03/09 03:16:13;;;;;;;8.40;4.03;;;2.10;99.10;;;;;;4916393;29;20268;-73
2022/03/09 03:18:40;;;;;;;5.30;3.63;;;2.20;99.90;;;;;;4916057;29;20215;-73
2022/03/09 03:21:07;;;;;;;11.17;3.90;;;2.30;99.90;;;;;;4916127;29;20876;-74
2022/03/09 03:23:36;;;;;;;5.80;3.20;;;2.40;99.90;;;;;;4916225;29;20665;-74
2022/03/09 03:26:04;;;;;;;7.63;3.70;;;2.40;99.90;;;;;;4916094;29;20229;-73
2022/03/09 03:28:31;;;;;;;6.60;3.53;;;2.60;99.10;;;;;;4916026;29;20205;-74
2022/03/09 03:30:59;;;;;;;9.60;4.47;;;2.70;98.60;;;;;;4915802;29;20209;-72
2022/03/09 03:33:27;;;;;;;8.13;4.17;;;2.80;98.30;;;;;;4915976;29;20252;-72
2022/03/09 03:35:53;;;;;;;7.60;3.73;;;2.80;98.40;;;;;;4916189;29;20709;-72
2022/03/09 03:38:20;;;;;;;7.50;3.80;;;2.80;98.20;;;;;;4916202;29;20216;-72
2022/03/09 03:40:47;;;;;;;6.67;2.80;;;2.90;98.00;;;;;;4916174;29;20207;-73
2022/03/09 03:43:14;;;;;;;12.53;3.60;;;2.80;97.70;;;;;;4915782;29;20245;-72
2022/03/09 03:45:41;;;;;;;5.33;3.10;;;3.00;97.40;;;;;;4915851;29;20241;-72
2022/03/09 03:48:08;;;;;;;6.90;3.50;;;3.00;97.00;;;;;;4915905;29;20214;-73
2022/03/09 03:50:36;;;;;;;7.00;3.10;;;3.00;96.90;;;;;;4932591;29;20541;-73
2022/03/09 03:53:04;;;;;;;7.50;3.97;;;3.00;96.90;;;;;;4916414;29;20216;-72
2022/03/09 03:55:31;;;;;;;6.37;4.03;;;3.00;97.00;;;;;;4915572;29;20240;-72
2022/03/09 03:57:57;;;;;;;6.97;3.37;;;3.00;96.60;;;;;;4916439;29;20662;-72
2022/03/09 04:00:24;;;;;;;7.03;2.90;;;2.90;96.30;;;;;;4919691;29;20212;-73
2022/03/09 04:02:52;;;;;;;5.40;2.73;;;2.90;96.30;;;;;;4919008;29;20241;-73
2022/03/09 04:05:18;;;;;;;6.93;3.10;;;3.10;96.20;;;;;;4919082;29;20756;-73
2022/03/09 04:07:47;;;;;;;7.97;3.40;;;3.00;96.00;;;;;;4919530;29;20217;-73
2022/03/09 04:10:14;;;;;;;5.37;3.00;;;3.00;95.80;;;;;;4919230;29;20213;-74
2022/03/09 04:12:41;;;;;;;7.47;3.10;;;3.00;96.10;;;;;;4919883;29;20206;-74
2022/03/09 04:15:08;;;;;;;6.07;3.23;;;3.20;95.90;;;;;;4918935;29;20242;-72
2022/03/09 04:17:43;;;;;;;5.50;3.10;;;3.20;95.70;;;;;;4919090;29;20679;-72
2022/03/09 04:20:11;;;;;;;8.03;3.40;;;3.20;95.60;;;;;;4918743;29;20217;-72
2022/03/09 04:22:38;;;;;;;8.57;3.47;;;3.30;95.60;;;;;;4919339;29;20273;-73
2022/03/09 04:25:08;;;;;;;5.77;3.40;;;3.30;95.20;;;;;;4919402;29;20596;-72
2022/03/09 04:27:35;;;;;;;8.43;3.60;;;3.30;95.30;;;;;;4919321;29;20228;-72
2022/03/09 04:30:02;;;;;;;8.40;3.00;;;3.30;95.10;;;;;;4918728;29;20661;-74
2022/03/09 04:32:28;;;;;;;4.97;3.13;;;3.30;95.20;;;;;;4918956;29;20210;-74
2022/03/09 04:34:55;;;;;;;7.80;3.80;;;3.40;95.00;;;;;;4918834;29;20229;-73
2022/03/09 04:37:22;;;;;;;6.60;3.13;;;3.50;95.00;;;;;;4918799;29;20209;-73
2022/03/09 04:39:49;;;;;;;7.27;3.17;;;3.40;95.00;;;;;;4919292;29;20213;-73
2022/03/09 04:42:17;;;;;;;10.40;3.60;;;3.40;95.20;;;;;;4919314;29;20237;-73
2022/03/09 04:44:44;;;;;;;6.37;3.43;;;3.40;95.20;;;;;;4918135;29;20225;-73
2022/03/09 04:47:11;;;;;;;6.00;3.13;;;3.40;95.00;;;;;;4918715;29;20232;-72
2022/03/09 04:49:38;;;;;;;4.80;2.77;;;3.40;95.10;;;;;;4918525;29;20210;-72
2022/03/09 04:52:05;;;;;;;9.53;3.30;;;3.40;95.30;;;;;;4921630;29;20201;-72
2022/03/09 04:54:32;;;;;;;7.33;3.30;;;3.50;95.20;;;;;;4918622;29;20226;-72
2022/03/09 04:56:59;;;;;;;9.97;3.00;;;3.60;95.30;;;;;;4918400;29;20217;-72
2022/03/09 04:59:27;;;;;;;6.70;3.27;;;3.60;95.10;;;;;;4918251;29;20209;-73
2022/03/09 05:01:54;;;;;;;6.50;3.27;;;3.50;94.90;;;;;;4918362;29;20237;-73
2022/03/09 05:04:21;;;;;;;7.97;3.20;;;3.60;94.70;;;;;;4918358;29;20233;-73
2022/03/09 05:06:47;;;;;;;6.10;3.10;;;3.50;94.80;;;;;;4918157;29;20221;-72
2022/03/09 05:09:14;;;;;;;5.53;2.97;;;3.50;94.90;;;;;;4917535;29;20684;-73
2022/03/09 05:11:41;;;;;;;6.67;3.00;;;3.50;94.90;;;;;;4933124;29;20208;-73
2022/03/09 05:14:08;;;;;;;9.27;3.30;;;3.50;94.90;;;;;;4936605;29;20232;-73
2022/03/09 05:16:36;;;;;;;7.37;3.13;;;3.50;94.70;;;;;;4936419;29;20221;-73
2022/03/09 05:19:03;;;;;;;6.57;3.50;;;3.60;94.50;;;;;;4936340;29;20212;-73
2022/03/09 05:21:30;;;;;;;10.17;3.97;;;3.70;94.50;;;;;;4936579;29;20208;-73
2022/03/09 05:23:56;;;;;;;9.10;2.97;;;3.70;94.50;;;;;;4937008;29;20252;-73
2022/03/09 05:26:23;;;;;;;7.57;3.47;;;3.70;94.30;;;;;;4937403;29;20215;-73
2022/03/09 05:28:51;;;;;;;7.27;3.23;;;3.80;94.30;;;;;;4936632;29;20636;-73
2022/03/09 05:31:18;;;;;;;6.20;3.47;;;3.80;94.20;;;;;;4936623;29;20212;-74
2022/03/09 05:33:46;;;;;;;9.77;3.43;;;3.80;94.40;;;;;;4936330;29;20216;-74
2022/03/09 05:36:13;;;;;;;7.30;3.10;;;4.00;94.20;;;;;;4923571;29;20653;-73
2022/03/09 05:38:39;;;;;;;8.23;3.50;;;4.00;93.90;;;;;;4917418;29;20214;-74
2022/03/09 05:41:06;;;;;;;6.57;2.93;;;3.90;94.10;;;;;;4917594;29;20221;-74
2022/03/09 05:43:34;;;;;;;7.53;3.40;;;3.80;94.20;;;;;;4917124;29;20624;-73
2022/03/09 05:46:01;;;;;;;7.33;3.33;;;3.90;94.20;;;;;;4917033;29;20720;-73
2022/03/09 05:48:28;;;;;;;9.50;3.70;;;3.90;94.30;;;;;;4917088;29;20209;-73
2022/03/09 05:50:56;;;;;;;6.23;2.77;;;3.90;94.30;;;;;;4917092;29;20228;-72
2022/03/09 05:53:23;;;;;;;9.17;3.50;;;4.00;94.20;;;;;;4917397;29;20661;-72
2022/03/09 05:55:49;;;;;;;9.57;4.00;;;4.00;94.00;;;;;;4916853;29;20244;-72
2022/03/09 05:58:16;;;;;;;8.33;3.50;;;4.00;94.40;;;;;;4917272;29;20684;-72
2022/03/09 06:00:43;;;;;;;13.87;3.13;;;4.00;94.30;;;;;;4921923;29;20201;-73
2022/03/09 06:03:10;;;;;;;9.33;3.67;;;3.80;94.20;;;;;;4935955;29;20716;-73
2022/03/09 06:05:36;;;;;;;7.93;3.43;;;3.90;94.40;;;;;;4936570;29;20236;-73
2022/03/09 06:08:05;;;;;;;7.90;3.67;;;3.90;94.60;;;;;;4934269;29;20208;-73
2022/03/09 06:10:32;;;;;;;9.80;4.00;;;3.80;94.90;;;;;;4926142;29;20208;-73
2022/03/09 06:12:59;;;;;;;12.83;4.17;;;3.80;94.50;;;;;;4933984;29;20269;-73
2022/03/09 06:15:26;;;;;;;9.93;3.40;;;3.70;94.40;;;;;;4935245;29;20247;-73
2022/03/09 06:17:53;;;;;;;8.93;3.80;;;3.70;94.60;;;;;;4934626;29;20213;-73
2022/03/09 06:20:21;;;;;;;6.07;2.83;;;3.60;94.90;;;;;;4934479;29;20677;-73
2022/03/09 06:22:49;;;;;;;8.93;3.73;;;3.50;95.20;;;;;;4935564;29;20260;-72
2022/03/09 06:25:17;;;;;;;9.73;3.37;;;3.60;95.20;;;;;;4935765;29;20229;-73
2022/03/09 06:27:45;;;;;;;9.43;4.10;;;3.70;95.20;;;;;;4935397;29;20201;-73
2022/03/09 06:30:13;;;;;;;7.90;3.77;;;3.90;95.20;;;;;;4935505;29;20205;-73
2022/03/09 06:32:41;;;;;;;11.33;4.20;;;4.10;94.90;;;;;;4935644;29;20561;-73
2022/03/09 06:35:09;;;;;;;9.40;3.93;;;4.30;94.60;;;;;;4935710;29;20232;-73
2022/03/09 06:37:36;;;;;;;12.10;3.83;;;4.40;95.00;;;;;;4932930;29;20253;-73
2022/03/09 06:40:04;;;;;;;7.13;3.53;;;4.70;95.40;;;;;;4916298;29;20675;-73
2022/03/09 06:42:32;;;;;;;9.73;4.17;;;5.00;95.30;;;;;;4916535;29;20235;-73
2022/03/09 06:44:59;;;;;;;11.97;4.00;;;5.50;95.50;;;;;;4916401;29;20236;-73
2022/03/09 06:47:26;;;;;;;10.07;3.73;;;6.10;95.00;;;;;;4916370;29;20220;-73
2022/03/09 06:49:53;;;;;;;8.97;4.03;;;6.50;93.50;;;;;;4916410;29;20319;-73
2022/03/09 06:52:21;;;;;;;12.10;4.50;;;7.10;93.50;;;;;;4916285;29;20214;-73
2022/03/09 06:54:48;;;;;;;7.97;3.77;;;7.40;91.90;;;;;;4916666;29;20272;-73
2022/03/09 06:57:14;;;;;;;9.50;3.80;;;7.90;91.30;;;;;;4916464;29;20205;-73
2022/03/09 06:59:44;;;;;;;10.20;3.17;;;8.50;90.60;;;;;;4917808;29;20220;-73
2022/03/09 07:02:11;;;;;;;7.40;3.20;;;8.70;90.20;;;;;;4934059;29;20201;-73
2022/03/09 07:04:38;;;;;;;8.57;3.63;;;9.40;90.40;;;;;;4933463;29;20224;-73
2022/03/09 07:07:05;;;;;;;9.13;4.00;;;9.80;89.30;;;;;;4934352;29;20201;-73
2022/03/09 07:09:32;;;;;;;8.07;3.17;;;10.00;87.10;;;;;;4932550;29;20205;-73
2022/03/09 07:11:58;;;;;;;9.90;3.67;;;10.70;86.40;;;;;;4929870;29;20205;-73
2022/03/09 07:14:25;;;;;;;7.80;3.80;;;11.20;84.00;;;;;;4934644;29;20233;-73
2022/03/09 07:16:53;;;;;;;7.93;3.80;;;11.50;84.80;;;;;;4924727;29;20224;-73
2022/03/09 07:19:20;;;;;;;7.57;4.07;;;11.30;82.10;;;;;;4936873;28;20209;-73
2022/03/09 07:21:47;;;;;;;9.13;4.00;;;11.90;82.70;;;;;;4931715;29;20216;-73
2022/03/09 07:24:14;;;;;;;9.17;4.30;;;12.20;81.30;;;;;;4934150;29;20240;-73
2022/03/09 07:26:42;;;;;;;9.50;4.17;;;12.70;81.10;;;;;;4930561;29;20593;-73
2022/03/09 07:29:11;;;;;;;11.80;4.63;;;13.00;78.10;;;;;;4933117;29;20565;-74
2022/03/09 07:31:38;;;;;;;9.67;4.30;;;13.30;78.10;;;;;;4934039;29;20672;-73
2022/03/09 07:34:06;;;;;;;10.63;5.17;;;12.90;75.40;;;;;;4936136;29;20221;-73
2022/03/09 07:36:33;;;;;;;9.93;4.40;;;12.80;75.60;;;;;;4938760;29;20204;-73
2022/03/09 07:39:00;;;;;;;10.77;4.63;;;12.80;76.60;;;;;;4938793;29;20197;-73
2022/03/09 07:41:26;;;;;;;9.97;4.47;;;13.60;76.60;;;;;;4938787;29;20205;-73
2022/03/09 07:43:53;;;;;;;9.40;4.30;;;13.90;75.20;;;;;;4938624;29;20237;-73
2022/03/09 07:46:20;;;;;;;11.03;4.13;;;14.50;75.00;;;;;;4938324;29;20567;-73
2022/03/09 07:48:47;;;;;;;7.73;3.83;;;14.30;73.60;;;;;;4938321;29;20209;-73
2022/03/09 07:51:15;;;;;;;8.07;3.90;;;14.00;73.70;;;;;;4938003;29;20215;-73
2022/03/09 07:53:43;;;;;;;9.07;4.17;;;13.60;73.00;;;;;;4938437;29;20573;-73
2022/03/09 07:56:11;;;;;;;10.77;4.50;;;13.20;73.00;;;;;;4938316;29;20301;-73
2022/03/09 07:58:38;;;;;;;9.50;4.03;;;13.10;73.10;;;;;;4937299;29;20205;-73
2022/03/09 08:01:05;;;;;;;8.40;4.67;;;12.80;74.40;;;;;;4938529;29;20213;-73
2022/03/09 08:03:32;;;;;;;11.40;4.57;;;12.00;74.00;;;;;;4937649;29;20243;-73
2022/03/09 08:05:59;;;;;;;11.73;5.37;;;11.70;74.80;;;;;;4938087;29;20697;-73
2022/03/09 08:08:27;;;;;;;10.77;4.77;;;11.70;75.30;;;;;;4938090;29;20213;-73
2022/03/09 08:10:54;;;;;;;10.53;4.77;;;11.80;74.50;;;;;;4937618;29;20212;-73
2022/03/09 08:13:21;;;;;;;11.57;4.00;;;11.60;74.90;;;;;;4937747;29;20252;-73
2022/03/09 08:15:48;;;;;;;10.90;4.33;;;11.50;74.90;;;;;;4937708;29;20739;-73
2022/03/09 08:18:15;;;;;;;8.93;4.60;;;11.30;76.10;;;;;;4937683;29;20687;-73
2022/03/09 08:20:42;;;;;;;11.90;4.40;;;11.30;76.50;;;;;;4937793;29;20208;-73
2022/03/09 08:23:09;;;;;;;9.90;4.37;;;11.20;78.20;;;;;;4936604;29;20228;-73
2022/03/09 08:25:37;;;;;;;10.53;4.17;;;11.50;77.00;;;;;;4937713;29;20232;-73
2022/03/09 08:28:04;;;;;;;10.17;4.53;;;11.70;75.70;;;;;;4937634;29;20668;-73
2022/03/09 08:30:31;;;;;;;11.63;5.17;;;11.70;75.80;;;;;;4938076;29;20215;-73
2022/03/09 08:32:58;;;;;;;10.47;4.30;;;11.60;76.10;;;;;;4937725;29;20651;-73
2022/03/09 08:35:25;;;;;;;9.87;5.20;;;12.30;76.20;;;;;;4936445;29;20221;-73
2022/03/09 08:37:51;;;;;;;11.27;5.33;;;12.40;76.10;;;;;;4936767;29;20205;-73
2022/03/09 08:40:18;;;;;;;9.33;4.53;;;13.00;74.90;;;;;;4937184;29;20223;-74
2022/03/09 08:42:47;;;;;;;11.90;4.83;;;13.20;74.80;;;;;;4937310;29;20213;-73
2022/03/09 08:45:14;;;;;;;11.30;5.43;;;13.10;75.10;;;;;;4936918;29;20233;-73
2022/03/09 08:47:41;;;;;;;11.07;5.33;;;13.00;75.80;;;;;;4936868;29;20209;-73
2022/03/09 08:50:09;;;;;;;12.00;5.20;;;12.90;75.70;;;;;;4937596;29;20201;-73
2022/03/09 08:52:36;;;;;;;15.67;7.13;;;12.80;75.90;;;;;;4937657;29;20629;-73
2022/03/09 08:55:03;;;;;;;14.33;5.47;;;12.50;74.70;;;;;;4937517;29;20231;-73
2022/03/09 08:57:31;;;;;;;16.23;5.90;;;12.00;75.90;;;;;;4937011;29;20220;-73
2022/03/09 09:00:02;;;;;;;13.70;5.27;;;12.10;75.50;;;;;;4937013;29;20568;-73
2022/03/09 09:02:29;;;;;;;13.87;5.43;;;12.40;76.50;;;;;;4937132;29;20205;-72
2022/03/09 09:04:56;;;;;;;13.47;5.03;;;12.00;76.70;;;;;;4936972;29;20311;-73
2022/03/09 09:07:23;;;;;;;13.27;5.70;;;11.90;77.20;;;;;;4937365;29;20209;-73
2022/03/09 09:09:50;;;;;;;11.63;4.93;;;12.20;77.00;;;;;;4936765;29;20212;-73
2022/03/09 09:12:17;;;;;;;9.77;4.50;;;12.10;78.50;;;;;;4936890;29;20209;-73
2022/03/09 09:14:44;;;;;;;10.97;5.10;;;11.90;79.30;;;;;;4937208;29;20240;-73
2022/03/09 09:17:12;;;;;;;13.87;5.17;;;12.00;78.30;;;;;;4936709;29;20223;-73
2022/03/09 09:19:39;;;;;;;11.53;5.30;;;12.10;78.70;;;;;;4936169;29;20197;-72
2022/03/09 09:22:05;;;;;;;11.77;5.50;;;12.10;78.90;;;;;;4936333;29;20201;-72
2022/03/09 09:24:32;;;;;;;13.00;5.90;;;11.90;79.50;;;;;;4936748;29;20268;-72
2022/03/09 09:26:59;;;;;;;10.77;4.93;;;11.80;79.80;;;;;;4936627;29;20223;-72
2022/03/09 09:29:26;;;;;;;12.70;5.47;;;11.60;79.60;;;;;;4936955;29;20209;-73
2022/03/09 09:31:53;;;;;;;13.33;5.23;;;11.40;80.60;;;;;;4936605;29;20212;-72
2022/03/09 09:34:21;;;;;;;13.50;6.07;;;11.30;81.60;;;;;;4934922;29;20228;-72
2022/03/09 09:36:48;;;;;;;15.40;5.63;;;11.30;82.00;;;;;;4934144;29;20569;-73
2022/03/09 09:39:17;;;;;;;12.03;5.80;;;11.40;81.60;;;;;;4927592;29;20213;-73
2022/03/09 09:41:46;;;;;;;13.60;5.33;;;11.10;80.90;;;;;;4915669;29;20292;-72
2022/03/09 09:44:13;;;;;;;14.90;5.67;;;11.00;82.50;;;;;;4915451;29;20288;-71
2022/03/09 09:46:41;;;;;;;12.87;4.97;;;11.10;82.00;;;;;;4919167;29;20209;-71
2022/03/09 09:49:10;;;;;;;11.20;4.43;;;11.40;82.80;;;;;;4935584;29;20240;-72
2022/03/09 09:51:40;;;;;;;12.87;5.03;;;11.60;84.10;;;;;;4935903;29;20209;-71
2022/03/09 09:54:07;;;;;;;12.97;5.17;;;11.60;82.90;;;;;;4935813;29;20225;-71
2022/03/09 09:56:37;;;;;;;12.27;4.87;;;11.80;83.80;;;;;;4933118;29;20278;-72
2022/03/09 09:59:04;;;;;;;12.97;5.60;;;12.00;83.30;;;;;;4931289;29;20209;-72
2022/03/09 10:01:30;;;;;;;13.50;5.50;;;12.00;82.40;;;;;;4935116;29;20209;-72
2022/03/09 10:03:58;;;;;;;11.90;5.30;;;12.00;82.20;;;;;;4932153;29;20228;-72
2022/03/09 10:06:25;;;;;;;13.20;5.40;;;12.00;82.10;;;;;;4933410;29;20668;-72
2022/03/09 10:09:05;;;;;;;16.60;5.60;;;11.90;82.50;;;;;;4932543;29;20216;-73
2022/03/09 10:11:50;;;;;;;15.03;5.23;;;12.10;81.80;;;;;;4933865;29;20898;-73
2022/03/09 10:14:19;;;;;;;14.23;5.80;;;12.20;81.50;;;;;;4934266;29;20441;-73
2022/03/09 10:17:03;;;;;;;12.93;4.90;;;12.20;82.00;;;;;;4929978;29;20213;-73
2022/03/09 10:19:35;;;;;;;13.63;5.47;;;12.20;82.30;;;;;;4934403;29;20207;-73
2022/03/09 10:22:22;;;;;;;15.10;5.57;;;12.20;81.30;;;;;;4935134;29;20211;-72
2022/03/09 10:24:51;;;;;;;12.70;5.00;;;12.20;81.00;;;;;;4935288;29;20244;-72
2022/03/09 10:27:40;;;;;;;14.63;5.50;;;12.30;81.60;;;;;;4932960;29;20209;-73
2022/03/09 10:30:09;;;;;;;12.70;5.00;;;12.40;81.70;;;;;;4933600;29;20565;-72
2022/03/09 10:32:44;;;;;;;15.20;4.93;;;12.40;82.90;;;;;;4919828;29;20206;-73
2022/03/09 10:35:11;;;;;;;13.10;5.17;;;12.30;80.90;;;;;;4934289;29;20226;-73
2022/03/09 10:37:39;;;;;;;15.23;5.53;;;12.40;82.10;;;;;;4935248;29;20204;-73
2022/03/09 10:40:11;;;;;;;12.90;5.83;;;12.50;81.90;;;;;;4935222;29;20267;-74
2022/03/09 10:42:38;;;;;;;16.27;4.90;;;12.40;82.20;;;;;;4934696;29;20208;-73
2022/03/09 10:45:07;;;;;;;14.90;5.57;;;12.60;82.60;;;;;;4929467;29;20251;-73
2022/03/09 10:47:36;;;;;;;15.20;5.83;;;12.70;82.00;;;;;;4921034;29;20206;-71
2022/03/09 10:50:16;;;;;;;15.03;5.57;;;12.80;82.90;;;;;;4934218;29;20205;-72
2022/03/09 10:52:51;;;;;;;13.90;5.90;;;12.90;82.40;;;;;;4935496;29;20204;-72
2022/03/09 10:55:25;;;;;;;19.27;6.53;;;12.90;81.90;;;;;;4934617;29;20715;-72
2022/03/09 10:57:52;;;;;;;19.27;5.60;;;12.90;82.60;;;;;;4922218;29;20201;-72
2022/03/09 11:00:37;;;;;;;14.23;4.97;;;13.00;82.40;;;;;;4929896;29;20197;-72
2022/03/09 11:03:09;;;;;;;15.27;6.17;;;13.10;82.80;;;;;;4915635;29;20696;-72
2022/03/09 11:05:36;;;;;;;16.47;6.47;;;13.20;82.30;;;;;;4919514;29;20237;-72
2022/03/09 11:08:04;;;;;;;16.23;5.43;;;13.30;81.20;;;;;;4933672;29;20203;-72
2022/03/09 11:10:33;;;;;;;13.60;5.20;;;13.30;80.80;;;;;;4936206;29;20201;-72
2022/03/09 11:13:01;;;;;;;14.27;5.70;;;13.40;80.50;;;;;;4935857;29;20683;-72
2022/03/09 11:15:29;;;;;;;18.07;5.23;;;13.30;81.60;;;;;;4937696;29;20225;-72
2022/03/09 11:17:56;;;;;;;11.20;5.40;;;13.30;81.50;;;;;;4937505;29;20252;-73
2022/03/09 11:20:23;;;;;;;15.73;6.20;;;13.50;81.40;;;;;;4937673;29;20213;-72
2022/03/09 11:22:51;;;;;;;15.03;6.10;;;13.50;80.40;;;;;;4938794;29;20219;-73
2022/03/09 11:25:24;;;;;;;14.50;5.80;;;13.50;81.20;;;;;;4939025;29;20240;-72
2022/03/09 11:27:55;;;;;;;17.97;6.57;;;13.60;81.10;;;;;;4938891;29;20660;-72
2022/03/09 11:30:27;;;;;;;15.60;6.30;;;13.60;80.50;;;;;;4938577;29;20213;-72
2022/03/09 11:32:55;;;;;;;14.60;6.23;;;13.70;80.70;;;;;;4938376;29;20228;-72
2022/03/09 11:35:36;;;;;;;18.33;7.30;;;13.70;80.50;;;;;;4938457;29;20228;-72
2022/03/09 11:38:24;;;;;;;15.50;5.97;;;13.70;80.40;;;;;;4938391;29;20743;-74
2022/03/09 11:41:16;;;;;;;14.23;6.30;;;13.70;80.90;;;;;;4938455;29;20200;-72
2022/03/09 11:43:44;;;;;;;15.87;6.37;;;13.80;80.10;;;;;;4938285;29;20303;-72
2022/03/09 11:46:11;;;;;;;15.43;5.93;;;13.90;81.10;;;;;;4937958;29;20674;-73
2022/03/09 11:48:53;;;;;;;15.10;6.23;;;13.80;80.40;;;;;;4937236;29;20208;-73
2022/03/09 11:51:21;;;;;;;16.83;6.80;;;13.70;80.00;;;;;;4937432;29;20564;-72
2022/03/09 11:53:51;;;;;;;18.67;6.57;;;13.70;80.70;;;;;;4938186;29;20213;-73
2022/03/09 11:56:29;;;;;;;14.60;5.47;;;13.90;81.00;;;;;;4938392;29;20220;-71
2022/03/09 11:59:20;;;;;;;15.60;6.23;;;14.00;80.30;;;;;;4938077;29;20773;-72
2022/03/09 12:02:13;;;;;;;17.20;6.50;;;14.20;81.10;;;;;;4938309;29;20209;-72
2022/03/09 12:04:50;;;;;;;21.27;7.83;;;14.10;79.80;;;;;;4936705;29;20237;-72
2022/03/09 12:07:48;;;;;;;19.27;7.10;;;14.00;79.70;;;;;;4937177;29;20251;-73
2022/03/09 12:10:16;;;;;;;16.73;6.87;;;14.10;79.90;;;;;;4936006;29;20215;-72
2022/03/09 12:13:21;;;;;;;17.00;7.23;;;14.20;80.20;;;;;;4935002;29;20205;-73
2022/03/09 12:16:07;;;;;;;17.93;7.37;;;14.40;80.50;;;;;;4936763;29;20216;-72
2022/03/09 12:18:39;;;;;;;18.43;6.57;;;14.50;80.30;;;;;;4936294;29;20236;-72
2022/03/09 12:21:08;;;;;;;15.37;6.47;;;14.40;79.30;;;;;;4936442;29;20216;-72
2022/03/09 12:23:35;;;;;;;20.70;7.77;;;14.50;79.70;;;;;;4936056;29;20215;-71
2022/03/09 12:26:03;;;;;;;19.43;6.60;;;14.50;79.50;;;;;;4933630;29;20232;-72
2022/03/09 12:28:48;;;;;;;16.73;6.37;;;14.60;79.10;;;;;;4937450;29;20209;-71
2022/03/09 12:31:23;;;;;;;15.17;6.37;;;14.50;80.00;;;;;;4936498;29;20201;-71
2022/03/09 12:33:52;;;;;;;17.20;6.80;;;14.70;79.50;;;;;;4933831;29;20683;-71
2022/03/09 12:36:20;;;;;;;15.70;6.23;;;14.70;79.30;;;;;;4936153;29;20649;-71
2022/03/09 12:38:49;;;;;;;16.90;6.40;;;14.80;78.30;;;;;;4937218;29;20211;-71
2022/03/09 12:41:30;;;;;;;18.00;6.60;;;14.90;79.90;;;;;;4936261;29;20244;-71
2022/03/09 12:43:59;;;;;;;18.10;6.77;;;15.00;80.10;;;;;;4934134;29;20209;-72
2022/03/09 12:46:28;;;;;;;19.33;6.73;;;15.00;78.30;;;;;;4931952;29;20205;-71
2022/03/09 12:49:04;;;;;;;18.17;6.30;;;14.70;77.30;;;;;;4936446;29;20208;-71
2022/03/09 12:51:31;;;;;;;24.30;7.17;;;14.60;78.60;;;;;;4933359;29;20232;-71
2022/03/09 12:53:58;;;;;;;16.60;6.27;;;14.70;79.60;;;;;;4935682;29;20201;-71
2022/03/09 12:56:25;;;;;;;17.40;6.57;;;14.70;79.80;;;;;;4927115;29;20209;-71